Time;durP1;ratioP1;P1;durP2;ratioP2;P2;SDS_P1;SDS_P2;PMS_P1;PMS_P2;Temp;Humidity;BMP_temperature;BMP_pressure;BME280_temperature;BME280_humidity;BME280_pressure;Samples;Min_cycle;Max_cycle;Signal;HPM_P1;HPM_P2
2022/10/13 00:00:34;;;;;;;1.98;0.63;;;24.50;45.90;;;;;;5046429;28;20041;-43
2022/10/13 00:03:02;;;;;;;3.90;0.60;;;24.50;45.90;;;;;;5048493;28;20084;-43
2022/10/13 00:05:29;;;;;;;7.95;0.47;;;24.50;46.00;;;;;;5048157;28;20041;-43
2022/10/13 00:07:57;;;;;;;0.90;0.55;;;24.50;46.00;;;;;;5048369;28;20047;-43
2022/10/13 00:10:25;;;;;;;1.42;0.30;;;24.50;46.00;;;;;;5044806;28;20044;-43
2022/10/13 00:12:52;;;;;;;5.95;0.85;;;24.40;45.90;;;;;;5047888;28;20043;-43
2022/10/13 00:15:24;;;;;;;1.70;0.85;;;24.40;45.90;;;;;;5046825;28;20048;-43
2022/10/13 00:17:51;;;;;;;1.77;0.60;;;24.50;46.00;;;;;;5047889;28;20055;-43
2022/10/13 00:20:19;;;;;;;0.90;0.20;;;24.40;45.90;;;;;;5046662;28;20111;-43
2022/10/13 00:22:46;;;;;;;1.83;0.40;;;24.40;45.80;;;;;;5048124;28;20052;-43
2022/10/13 00:25:13;;;;;;;5.20;0.43;;;24.50;45.90;;;;;;5047975;28;20045;-43
2022/10/13 00:27:40;;;;;;;2.13;0.55;;;24.50;45.90;;;;;;5047931;28;20517;-43
2022/10/13 00:30:08;;;;;;;1.02;0.50;;;24.40;45.90;;;;;;5040839;28;20033;-43
2022/10/13 00:32:36;;;;;;;0.30;0.20;;;24.50;46.00;;;;;;5043945;28;20049;-43
2022/10/13 00:35:05;;;;;;;0.63;0.63;;;24.40;46.00;;;;;;5047918;28;20044;-43
2022/10/13 00:37:32;;;;;;;1.60;0.30;;;24.40;46.10;;;;;;5046009;28;20132;-43
2022/10/13 00:39:59;;;;;;;1.25;0.88;;;24.50;46.20;;;;;;5047588;28;20047;-43
2022/10/13 00:42:26;;;;;;;2.25;0.60;;;24.40;46.10;;;;;;5047817;28;20056;-42
2022/10/13 00:45:03;;;;;;;1.42;0.30;;;24.40;46.10;;;;;;5046977;28;20499;-42
2022/10/13 00:47:36;;;;;;;2.15;0.30;;;24.50;46.30;;;;;;5047238;28;20053;-43
2022/10/13 00:50:05;;;;;;;3.35;0.30;;;24.40;46.30;;;;;;5047523;28;20040;-43
2022/10/13 00:52:33;;;;;;;4.13;0.93;;;24.40;46.30;;;;;;5047367;28;20061;-43
2022/10/13 00:55:03;;;;;;;2.83;0.40;;;24.40;46.40;;;;;;5047191;28;20049;-42
2022/10/13 00:57:31;;;;;;;2.60;0.40;;;24.40;46.40;;;;;;5047022;28;20118;-43
2022/10/13 01:00:00;;;;;;;1.38;0.32;;;24.40;46.40;;;;;;5043913;28;20033;-42
2022/10/13 01:02:32;;;;;;;0.88;0.30;;;24.40;46.40;;;;;;5076944;28;20497;-43
2022/10/13 01:05:02;;;;;;;0.82;0.55;;;24.40;46.40;;;;;;5047516;28;20045;-43
2022/10/13 01:07:30;;;;;;;0.32;0.17;;;24.40;46.40;;;;;;5047554;28;20072;-43
2022/10/13 01:09:59;;;;;;;2.65;0.15;;;24.40;46.40;;;;;;5047202;28;20037;-43
2022/10/13 01:12:42;;;;;;;1.08;0.30;;;24.40;46.50;;;;;;5047027;28;20087;-43
2022/10/13 01:15:14;;;;;;;1.55;0.30;;;24.40;46.50;;;;;;5047129;28;20049;-43
2022/10/13 01:17:53;;;;;;;2.88;0.22;;;24.40;47.20;;;;;;5040701;28;20076;-42
2022/10/13 01:20:43;;;;;;;1.70;0.40;;;24.40;47.20;;;;;;5047162;28;20133;-42
2022/10/13 01:23:31;;;;;;;0.88;0.10;;;24.40;46.50;;;;;;5047193;28;20132;-43
2022/10/13 01:26:17;;;;;;;0.85;0.20;;;24.40;46.50;;;;;;5047103;28;20048;-43
2022/10/13 01:29:11;;;;;;;2.90;0.63;;;24.40;46.40;;;;;;5051362;28;20053;-42
2022/10/13 01:31:48;;;;;;;1.35;0.68;;;24.40;46.60;;;;;;5050879;28;20036;-43
2022/10/13 01:34:21;;;;;;;2.60;1.08;;;24.40;46.60;;;;;;5051211;28;20596;-43
2022/10/13 01:36:55;;;;;;;0.75;0.40;;;24.40;46.60;;;;;;5051099;28;20068;-43
2022/10/13 01:39:33;;;;;;;0.73;0.35;;;24.40;46.50;;;;;;5051261;28;20041;-43
2022/10/13 01:42:11;;;;;;;0.93;0.30;;;24.40;46.60;;;;;;5050881;28;20577;-43
2022/10/13 01:44:41;;;;;;;2.25;0.17;;;24.40;46.50;;;;;;5051060;28;20045;-43
2022/10/13 01:47:12;;;;;;;0.47;0.45;;;24.40;46.50;;;;;;5050521;28;20540;-43
2022/10/13 01:49:39;;;;;;;0.80;0.43;;;24.40;46.50;;;;;;5044420;28;20045;-42
2022/10/13 01:52:11;;;;;;;0.40;0.22;;;24.40;46.70;;;;;;5044621;28;20472;-42
2022/10/13 01:54:39;;;;;;;0.20;0.20;;;24.40;46.60;;;;;;5046144;28;20547;-42
2022/10/13 01:57:29;;;;;;;0.30;0.20;;;24.30;46.60;;;;;;5050359;28;20044;-43
2022/10/13 01:59:57;;;;;;;3.38;0.40;;;24.40;46.60;;;;;;5050453;28;20056;-43
2022/10/13 02:02:34;;;;;;;2.08;0.22;;;24.40;46.70;;;;;;5050404;28;20041;-43
2022/10/13 02:05:14;;;;;;;0.40;0.20;;;24.40;46.70;;;;;;5050661;28;20044;-42
2022/10/13 02:07:46;;;;;;;2.33;0.45;;;24.40;46.70;;;;;;5050398;28;20436;-43
2022/10/13 02:10:23;;;;;;;2.38;1.05;;;24.30;47.20;;;;;;5044641;28;20087;-42
2022/10/13 02:12:54;;;;;;;1.67;0.30;;;24.40;46.70;;;;;;5048923;28;20082;-44
2022/10/13 02:15:25;;;;;;;0.75;0.20;;;24.30;46.60;;;;;;5050232;28;20041;-43
2022/10/13 02:17:54;;;;;;;0.20;0.20;;;24.30;46.70;;;;;;5048742;28;20045;-43
2022/10/13 02:20:22;;;;;;;1.42;0.73;;;24.40;46.80;;;;;;5044609;28;20041;-43
2022/10/13 02:22:55;;;;;;;0.50;0.20;;;24.40;46.80;;;;;;5046443;28;20065;-43
2022/10/13 02:25:24;;;;;;;1.58;0.47;;;24.40;46.70;;;;;;5050085;28;20033;-43
2022/10/13 02:27:53;;;;;;;1.02;0.47;;;24.30;46.70;;;;;;5049799;28;20190;-43
2022/10/13 02:30:22;;;;;;;4.28;0.55;;;24.30;46.60;;;;;;5050023;28;20721;-43
2022/10/13 02:32:49;;;;;;;1.67;0.40;;;24.30;46.60;;;;;;5050025;28;20037;-43
2022/10/13 02:35:17;;;;;;;2.38;1.02;;;24.30;46.60;;;;;;5050101;28;20044;-43
2022/10/13 02:37:44;;;;;;;2.55;0.52;;;24.30;46.60;;;;;;5041621;28;20651;-43
2022/10/13 02:40:12;;;;;;;2.45;1.02;;;24.30;46.60;;;;;;5048990;28;20132;-43
2022/10/13 02:42:39;;;;;;;1.45;0.32;;;24.30;46.60;;;;;;5049717;28;20052;-44
2022/10/13 02:45:08;;;;;;;0.98;0.28;;;24.30;46.50;;;;;;5050328;28;20717;-43
2022/10/13 02:47:35;;;;;;;5.00;0.20;;;24.30;46.50;;;;;;5049779;28;20420;-43
2022/10/13 02:50:05;;;;;;;1.90;0.75;;;24.30;46.50;;;;;;5049995;28;20045;-44
2022/10/13 02:52:33;;;;;;;1.83;0.55;;;24.30;46.40;;;;;;5043138;28;20049;-43
2022/10/13 02:55:00;;;;;;;1.65;0.38;;;24.30;46.50;;;;;;5048897;28;20119;-43
2022/10/13 02:57:27;;;;;;;0.98;0.30;;;24.30;46.40;;;;;;5049823;28;20033;-43
2022/10/13 02:59:54;;;;;;;1.33;1.05;;;24.30;46.40;;;;;;5048253;28;20081;-43
2022/10/13 03:02:22;;;;;;;0.85;0.40;;;24.30;46.40;;;;;;5049713;28;20059;-42
2022/10/13 03:04:49;;;;;;;1.08;0.30;;;24.30;46.40;;;;;;5049016;28;20064;-42
2022/10/13 03:07:16;;;;;;;1.70;1.25;;;24.30;47.10;;;;;;5049433;28;20059;-43
2022/10/13 03:09:45;;;;;;;3.00;0.30;;;24.30;46.50;;;;;;5049304;28;20540;-43
2022/10/13 03:12:12;;;;;;;1.05;0.70;;;24.30;46.50;;;;;;5046794;28;20837;-43
2022/10/13 03:14:39;;;;;;;2.53;0.90;;;24.30;46.60;;;;;;5045705;28;20037;-43
2022/10/13 03:17:06;;;;;;;8.73;1.55;;;24.30;46.50;;;;;;5048930;28;20057;-43
2022/10/13 03:19:33;;;;;;;0.63;0.22;;;24.30;46.60;;;;;;5049028;28;20091;-43
2022/10/13 03:22:00;;;;;;;1.52;0.20;;;24.30;46.60;;;;;;5049418;28;20047;-44
2022/10/13 03:24:27;;;;;;;0.60;0.43;;;24.30;46.60;;;;;;5049056;28;20041;-43
2022/10/13 03:26:55;;;;;;;1.60;0.20;;;24.30;47.20;;;;;;5049386;28;20049;-43
2022/10/13 03:29:22;;;;;;;0.77;0.40;;;24.30;46.60;;;;;;5049395;28;20037;-43
2022/10/13 03:31:49;;;;;;;1.25;0.30;;;24.30;46.60;;;;;;5049018;28;20041;-43
2022/10/13 03:34:19;;;;;;;3.55;0.30;;;24.30;46.70;;;;;;5049295;28;20045;-43
2022/10/13 03:36:46;;;;;;;0.80;0.30;;;24.30;46.70;;;;;;5048198;28;20049;-43
2022/10/13 03:39:14;;;;;;;0.52;0.30;;;24.30;46.70;;;;;;5048651;28;20091;-43
2022/10/13 03:41:41;;;;;;;0.80;0.80;;;24.30;46.70;;;;;;5048970;28;20044;-43
2022/10/13 03:44:11;;;;;;;3.42;0.20;;;24.30;46.60;;;;;;5047613;28;20039;-42
2022/10/13 03:46:38;;;;;;;1.48;0.20;;;24.30;46.60;;;;;;5048766;28;20071;-42
2022/10/13 03:49:05;;;;;;;1.08;0.82;;;24.30;46.70;;;;;;5044693;28;20051;-42
2022/10/13 03:51:33;;;;;;;1.92;0.45;;;24.30;46.70;;;;;;5044866;28;20053;-43
2022/10/13 03:53:59;;;;;;;2.08;0.20;;;24.30;46.70;;;;;;5047627;28;20521;-42
2022/10/13 03:56:27;;;;;;;3.33;0.30;;;24.30;46.60;;;;;;5048379;28;20201;-42
2022/10/13 03:58:56;;;;;;;0.13;0.10;;;24.30;46.70;;;;;;5048497;28;20779;-42
2022/10/13 04:01:26;;;;;;;2.80;0.20;;;24.20;46.60;;;;;;5048033;28;20125;-43
2022/10/13 04:03:55;;;;;;;2.97;0.40;;;24.30;46.70;;;;;;5047328;28;20098;-43
2022/10/13 04:06:22;;;;;;;3.03;0.40;;;24.20;46.80;;;;;;5047313;28;20071;-43
2022/10/13 04:08:50;;;;;;;3.30;0.68;;;24.20;46.80;;;;;;5048131;28;20163;-43
2022/10/13 04:11:17;;;;;;;1.85;0.45;;;24.20;46.80;;;;;;5047992;28;20035;-43
2022/10/13 04:13:47;;;;;;;0.63;0.20;;;24.20;46.80;;;;;;5047661;28;20128;-43
2022/10/13 04:16:16;;;;;;;0.77;0.25;;;24.20;46.80;;;;;;5044470;28;20036;-43
2022/10/13 04:18:45;;;;;;;0.75;0.75;;;24.20;46.80;;;;;;5047840;28;20041;-43
2022/10/13 04:21:14;;;;;;;0.88;0.30;;;24.20;46.80;;;;;;5047452;28;20481;-43
2022/10/13 04:23:41;;;;;;;1.52;0.20;;;24.20;46.80;;;;;;5046749;28;20044;-43
2022/10/13 04:26:15;;;;;;;1.42;0.52;;;24.20;46.80;;;;;;5044898;28;20037;-42
2022/10/13 04:28:42;;;;;;;2.67;0.43;;;24.20;46.70;;;;;;5039776;28;20037;-43
2022/10/13 04:31:09;;;;;;;1.05;0.85;;;24.20;46.80;;;;;;5042694;28;20037;-41
2022/10/13 04:33:36;;;;;;;1.73;0.43;;;24.20;46.90;;;;;;5042844;28;20238;-41
2022/10/13 04:36:06;;;;;;;2.38;0.40;;;24.20;47.10;;;;;;5044444;28;20040;-41
2022/10/13 04:38:33;;;;;;;1.02;0.22;;;24.20;47.30;;;;;;5047708;28;20044;-40
2022/10/13 04:41:02;;;;;;;0.35;0.20;;;24.20;47.50;;;;;;5047184;28;20037;-40
2022/10/13 04:43:30;;;;;;;1.58;0.30;;;24.30;47.60;;;;;;5047319;28;20063;-42
2022/10/13 04:46:03;;;;;;;3.28;0.20;;;24.30;48.20;;;;;;5046609;28;20044;-45
2022/10/13 04:48:31;;;;;;;1.00;0.20;;;24.40;47.60;;;;;;5041521;28;20072;-43
2022/10/13 04:51:01;;;;;;;3.40;0.30;;;24.40;47.60;;;;;;5046250;28;20041;-42
2022/10/13 04:53:31;;;;;;;2.47;0.20;;;24.50;47.60;;;;;;5045349;28;20057;-42
2022/10/13 04:56:02;;;;;;;0.95;0.70;;;24.50;47.50;;;;;;5048576;28;20041;-41
2022/10/13 04:58:30;;;;;;;2.30;0.50;;;24.60;47.40;;;;;;5041331;28;20075;-41
2022/10/13 05:01:02;;;;;;;1.77;0.60;;;24.60;47.30;;;;;;5046764;28;20033;-41
2022/10/13 05:03:29;;;;;;;4.13;0.40;;;24.70;47.20;;;;;;5046841;28;20041;-41
2022/10/13 05:05:57;;;;;;;1.23;0.20;;;24.70;47.10;;;;;;5044503;28;20528;-42
2022/10/13 05:08:24;;;;;;;2.63;1.45;;;24.80;47.10;;;;;;5046547;28;20151;-42
2022/10/13 05:10:56;;;;;;;2.17;0.20;;;24.90;47.00;;;;;;5047201;28;20894;-45
2022/10/13 05:13:24;;;;;;;0.95;0.22;;;24.90;46.90;;;;;;5046268;28;20647;-44
2022/10/13 05:15:52;;;;;;;1.63;0.50;;;24.90;46.80;;;;;;5034370;28;20049;-44
2022/10/13 05:18:21;;;;;;;1.27;0.30;;;25.00;46.70;;;;;;5040885;28;20072;-44
2022/10/13 05:20:48;;;;;;;2.00;0.20;;;25.10;46.60;;;;;;5047257;28;20540;-42
2022/10/13 05:23:16;;;;;;;1.85;0.32;;;25.20;46.50;;;;;;5044808;28;20064;-42
2022/10/13 05:25:43;;;;;;;3.15;0.20;;;25.20;46.40;;;;;;5041200;28;20051;-44
2022/10/13 05:28:14;;;;;;;0.43;0.20;;;25.30;46.40;;;;;;5040885;28;20454;-43
2022/10/13 05:30:41;;;;;;;0.88;0.88;;;25.30;46.20;;;;;;5047153;28;20041;-43
2022/10/13 05:33:08;;;;;;;1.13;0.30;;;25.40;46.10;;;;;;5046766;28;20461;-42
2022/10/13 05:35:35;;;;;;;1.23;0.32;;;25.40;46.00;;;;;;5040836;28;20477;-42
2022/10/13 05:38:02;;;;;;;1.98;0.80;;;25.50;45.80;;;;;;5040439;28;20063;-43
2022/10/13 05:40:30;;;;;;;5.95;0.60;;;25.50;45.50;;;;;;5046922;28;20065;-43
2022/10/13 05:43:00;;;;;;;3.15;1.38;;;25.50;45.30;;;;;;5047062;28;20095;-42
2022/10/13 05:45:31;;;;;;;5.57;1.00;;;25.60;45.20;;;;;;5046357;28;20037;-42
2022/10/13 05:47:58;;;;;;;2.60;0.40;;;25.60;45.10;;;;;;5034496;28;20073;-43
2022/10/13 05:50:25;;;;;;;1.42;0.55;;;25.60;44.90;;;;;;5047071;28;20037;-42
2022/10/13 05:52:52;;;;;;;3.60;0.57;;;25.60;44.80;;;;;;5046661;28;20045;-42
2022/10/13 05:55:19;;;;;;;2.78;0.35;;;25.60;44.70;;;;;;5045298;28;20040;-42
2022/10/13 05:57:51;;;;;;;4.47;0.50;;;25.60;44.60;;;;;;5040483;28;20052;-42
2022/10/13 06:00:20;;;;;;;1.25;0.98;;;25.60;44.50;;;;;;5040963;28;20112;-42
2022/10/13 06:02:53;;;;;;;4.47;0.65;;;25.60;44.50;;;;;;5046467;28;20416;-42
2022/10/13 06:05:23;;;;;;;2.08;0.75;;;25.60;44.40;;;;;;5046726;28;20049;-43
2022/10/13 06:07:54;;;;;;;3.10;0.88;;;25.60;44.40;;;;;;5046383;28;20422;-42
2022/10/13 06:10:22;;;;;;;2.22;0.60;;;25.50;44.30;;;;;;5038144;28;20046;-42
2022/10/13 06:12:49;;;;;;;3.58;0.45;;;25.50;44.30;;;;;;5046522;28;20064;-43
2022/10/13 06:15:16;;;;;;;4.40;1.10;;;25.50;44.30;;;;;;5048800;28;20045;-43
2022/10/13 06:17:43;;;;;;;1.55;0.35;;;25.50;44.20;;;;;;5050032;28;20044;-43
2022/10/13 06:20:12;;;;;;;1.35;0.60;;;25.50;44.20;;;;;;5050517;28;20049;-43
2022/10/13 06:22:39;;;;;;;1.52;0.35;;;25.50;44.20;;;;;;5049061;28;20041;-43
2022/10/13 06:25:07;;;;;;;4.57;0.20;;;25.50;44.20;;;;;;5050395;28;20788;-42
2022/10/13 06:27:34;;;;;;;2.88;0.50;;;25.40;44.20;;;;;;5044731;28;20052;-42
2022/10/13 06:30:02;;;;;;;2.88;0.50;;;25.40;44.10;;;;;;5049998;28;20080;-43
2022/10/13 06:32:29;;;;;;;1.38;0.43;;;25.40;44.10;;;;;;5049220;28;20032;-42
2022/10/13 06:34:56;;;;;;;1.58;0.20;;;25.40;44.10;;;;;;5049532;28;20141;-43
2022/10/13 06:37:24;;;;;;;4.70;0.22;;;25.40;44.00;;;;;;5049260;28;20068;-42
2022/10/13 06:39:51;;;;;;;1.70;0.40;;;25.40;44.00;;;;;;5049299;28;20156;-43
2022/10/13 06:42:18;;;;;;;1.75;0.55;;;25.30;43.90;;;;;;5049642;28;20357;-43
2022/10/13 06:44:46;;;;;;;2.67;1.20;;;25.40;44.00;;;;;;5048172;28;20518;-46
2022/10/13 06:47:13;;;;;;;4.13;1.23;;;25.30;43.90;;;;;;5049065;28;20486;-43
2022/10/13 06:49:40;;;;;;;1.65;0.30;;;25.30;43.90;;;;;;5049374;28;20049;-43
2022/10/13 06:52:11;;;;;;;2.40;0.95;;;25.30;44.00;;;;;;5049415;28;20059;-43
2022/10/13 06:54:39;;;;;;;2.47;0.30;;;25.30;44.00;;;;;;5049154;28;20048;-43
2022/10/13 06:57:06;;;;;;;7.70;0.32;;;25.30;44.00;;;;;;5049026;28;20081;-43
2022/10/13 06:59:34;;;;;;;3.30;0.20;;;25.20;44.00;;;;;;5043337;28;20041;-43
2022/10/13 07:02:01;;;;;;;1.13;0.60;;;25.20;44.10;;;;;;5049202;28;20095;-43
2022/10/13 07:04:28;;;;;;;6.72;1.38;;;25.20;44.10;;;;;;5048941;28;20128;-42
2022/10/13 07:06:58;;;;;;;2.83;0.17;;;25.20;44.80;;;;;;5042159;28;20045;-43
2022/10/13 07:09:25;;;;;;;0.85;0.10;;;25.20;44.30;;;;;;5048617;28;20450;-43
2022/10/13 07:11:53;;;;;;;2.17;0.60;;;25.20;44.30;;;;;;5047275;28;20078;-43
2022/10/13 07:14:20;;;;;;;2.85;0.47;;;25.20;44.40;;;;;;5048356;28;20121;-43
2022/10/13 07:16:48;;;;;;;0.82;0.30;;;25.20;44.50;;;;;;5049189;28;20523;-43
2022/10/13 07:19:15;;;;;;;2.60;0.30;;;25.20;44.50;;;;;;5046822;28;20059;-43
2022/10/13 07:21:43;;;;;;;4.47;0.30;;;25.20;44.60;;;;;;5042858;28;20041;-43
2022/10/13 07:24:11;;;;;;;2.45;0.35;;;25.20;44.60;;;;;;5042263;28;20056;-43
2022/10/13 07:26:38;;;;;;;1.15;0.38;;;25.20;44.70;;;;;;5049143;28;20045;-43
2022/10/13 07:29:07;;;;;;;1.83;0.20;;;25.20;44.70;;;;;;5043755;28;20048;-43
2022/10/13 07:31:35;;;;;;;0.57;0.57;;;25.10;44.60;;;;;;5042267;28;20072;-44
2022/10/13 07:34:03;;;;;;;3.72;0.40;;;25.10;45.00;;;;;;5048416;28;20528;-45
2022/10/13 07:36:31;;;;;;;0.40;0.22;;;25.10;45.40;;;;;;5041742;28;20048;-44
2022/10/13 07:38:58;;;;;;;4.13;1.30;;;25.00;45.70;;;;;;5043529;28;20068;-44
2022/10/13 07:41:25;;;;;;;1.58;0.73;;;25.00;45.80;;;;;;5046311;28;20049;-48
2022/10/13 07:43:56;;;;;;;2.90;0.75;;;24.90;46.10;;;;;;5042156;28;20045;-47
2022/10/13 07:46:25;;;;;;;1.33;0.30;;;24.90;46.20;;;;;;5048290;28;20133;-46
2022/10/13 07:48:52;;;;;;;1.10;0.20;;;24.80;46.30;;;;;;5048392;28;20095;-47
2022/10/13 07:51:20;;;;;;;7.65;0.35;;;24.80;46.50;;;;;;5048128;28;20053;-48
2022/10/13 07:53:47;;;;;;;2.53;0.45;;;24.80;46.50;;;;;;5047635;28;20049;-43
2022/10/13 07:56:16;;;;;;;3.13;1.75;;;24.80;46.50;;;;;;5042175;28;20037;-44
2022/10/13 07:58:45;;;;;;;3.00;0.20;;;24.90;46.80;;;;;;5041533;28;20032;-43
2022/10/13 08:01:13;;;;;;;2.80;0.20;;;24.90;46.80;;;;;;5045056;28;20602;-43
2022/10/13 08:03:42;;;;;;;0.98;0.20;;;24.90;46.80;;;;;;5048033;28;20049;-42
2022/10/13 08:06:10;;;;;;;3.83;0.52;;;25.00;46.80;;;;;;5048093;28;20083;-45
2022/10/13 08:08:39;;;;;;;0.45;0.10;;;25.00;46.70;;;;;;5047733;28;20603;-43
2022/10/13 08:11:08;;;;;;;1.85;0.20;;;25.00;46.70;;;;;;5039542;28;20064;-46
2022/10/13 08:13:35;;;;;;;3.38;0.80;;;25.10;46.60;;;;;;5047302;28;20048;-48
2022/10/13 08:16:13;;;;;;;3.03;0.20;;;25.20;46.60;;;;;;5047039;28;20143;-47
2022/10/13 08:18:42;;;;;;;4.32;0.52;;;25.20;46.50;;;;;;5044961;28;20045;-44
2022/10/13 08:21:12;;;;;;;1.90;0.50;;;25.30;46.50;;;;;;5046867;28;20616;-46
2022/10/13 08:23:39;;;;;;;2.90;1.08;;;25.30;46.40;;;;;;5047628;28;20045;-44
2022/10/13 08:26:12;;;;;;;1.13;0.25;;;25.30;46.40;;;;;;5047904;28;20037;-43
2022/10/13 08:28:39;;;;;;;0.73;0.10;;;25.40;46.40;;;;;;5047046;28;20049;-44
2022/10/13 08:31:07;;;;;;;6.03;0.50;;;25.30;46.30;;;;;;5047551;28;20533;-45
2022/10/13 08:33:34;;;;;;;4.13;0.68;;;25.40;46.40;;;;;;5046079;28;20144;-40
2022/10/13 08:36:03;;;;;;;2.67;0.10;;;25.40;46.60;;;;;;5047277;28;20045;-41
2022/10/13 08:38:30;;;;;;;3.42;1.58;;;25.40;46.60;;;;;;5047056;28;20048;-43
2022/10/13 08:40:57;;;;;;;12.02;1.88;;;25.40;46.60;;;;;;5047490;28;20047;-43
2022/10/13 08:43:25;;;;;;;2.90;0.50;;;25.30;46.70;;;;;;5045089;28;20420;-43
2022/10/13 08:45:56;;;;;;;2.10;0.20;;;25.30;46.80;;;;;;5043394;28;20045;-42
2022/10/13 08:48:27;;;;;;;15.52;2.03;;;25.30;46.90;;;;;;5047055;28;20068;-44
2022/10/13 08:50:57;;;;;;;5.00;0.73;;;25.30;47.20;;;;;;5047357;28;20063;-43
2022/10/13 08:53:29;;;;;;;1.85;0.10;;;25.10;44.70;;;;;;5047172;28;20041;-43
2022/10/13 08:55:59;;;;;;;3.05;0.30;;;24.60;43.80;;;;;;5046926;28;20186;-42
2022/10/13 08:58:30;;;;;;;3.47;0.30;;;24.20;44.00;;;;;;5047312;28;20135;-41
2022/10/13 09:01:04;;;;;;;1.60;0.20;;;23.70;44.30;;;;;;5044622;28;20048;-43
2022/10/13 09:03:32;;;;;;;1.92;0.30;;;23.40;44.70;;;;;;5045864;28;20136;-41
2022/10/13 09:06:09;;;;;;;3.80;0.40;;;23.00;45.10;;;;;;5045251;28;20039;-42
2022/10/13 09:08:42;;;;;;;2.60;0.40;;;22.70;46.10;;;;;;5045207;28;20048;-42
2022/10/13 09:11:11;;;;;;;1.77;0.13;;;22.40;46.10;;;;;;5046058;28;20049;-42
2022/10/13 09:13:39;;;;;;;2.22;0.45;;;22.20;46.50;;;;;;5046157;28;20124;-42
2022/10/13 09:16:06;;;;;;;1.98;0.28;;;22.00;46.90;;;;;;5045259;28;20041;-42
2022/10/13 09:18:34;;;;;;;2.35;0.10;;;21.80;47.30;;;;;;5046415;28;20120;-42
2022/10/13 09:21:19;;;;;;;6.13;1.05;;;21.60;47.60;;;;;;5046008;28;20124;-42
2022/10/13 09:23:49;;;;;;;5.15;0.32;;;21.50;48.10;;;;;;5045107;28;20106;-42
2022/10/13 09:26:20;;;;;;;3.90;0.68;;;21.30;48.40;;;;;;5043495;28;20405;-42
2022/10/13 09:28:48;;;;;;;3.38;0.30;;;21.30;48.80;;;;;;5045531;28;20032;-42
2022/10/13 09:31:18;;;;;;;5.53;0.45;;;21.10;49.10;;;;;;5045690;28;20048;-42
2022/10/13 09:33:46;;;;;;;5.53;0.30;;;21.10;49.40;;;;;;5043451;28;20045;-40
2022/10/13 09:36:15;;;;;;;5.20;0.20;;;21.00;49.60;;;;;;5044904;28;20112;-40
2022/10/13 09:38:51;;;;;;;8.82;0.38;;;20.90;49.90;;;;;;5045055;28;20037;-40
2022/10/13 09:41:21;;;;;;;1.35;0.65;;;20.90;50.20;;;;;;5046454;28;20403;-39
2022/10/13 09:44:01;;;;;;;4.43;0.68;;;20.80;50.50;;;;;;5046484;28;20045;-39
2022/10/13 09:46:31;;;;;;;12.13;0.73;;;20.80;50.70;;;;;;5040098;28;20429;-38
2022/10/13 09:49:02;;;;;;;7.57;0.80;;;20.70;51.10;;;;;;5049393;28;20128;-39
2022/10/13 09:51:35;;;;;;;3.08;0.63;;;20.70;51.70;;;;;;5049034;28;20045;-39
2022/10/13 09:54:27;;;;;;;5.97;0.82;;;20.70;52.20;;;;;;5050021;28;20045;-39
2022/10/13 09:57:00;;;;;;;3.03;0.15;;;20.70;52.90;;;;;;5049011;28;20037;-40
2022/10/13 09:59:33;;;;;;;1.30;0.30;;;20.60;53.30;;;;;;5046893;28;20045;-39
2022/10/13 10:02:03;;;;;;;2.42;1.35;;;20.60;53.70;;;;;;5049850;28;20066;-39
2022/10/13 10:04:36;;;;;;;2.85;0.50;;;20.60;53.90;;;;;;5048599;28;20082;-39
2022/10/13 10:07:10;;;;;;;2.25;0.65;;;20.50;54.20;;;;;;5049535;28;20045;-38
2022/10/13 10:09:41;;;;;;;3.42;1.65;;;20.50;54.30;;;;;;5049961;28;20132;-39
2022/10/13 10:12:16;;;;;;;3.15;0.45;;;20.50;54.50;;;;;;5050851;28;20485;-39
2022/10/13 10:14:43;;;;;;;4.03;0.28;;;20.50;54.90;;;;;;5049165;28;20099;-39
2022/10/13 10:17:17;;;;;;;2.03;0.55;;;20.50;55.00;;;;;;5050188;28;20119;-41
2022/10/13 10:19:53;;;;;;;3.85;0.20;;;20.50;55.30;;;;;;5050541;28;20505;-40
2022/10/13 10:22:31;;;;;;;3.33;0.17;;;20.50;55.50;;;;;;5048662;28;20095;-39
2022/10/13 10:25:04;;;;;;;4.18;0.10;;;20.40;55.60;;;;;;5049482;28;20033;-40
2022/10/13 10:27:38;;;;;;;5.03;0.50;;;20.40;55.70;;;;;;5043940;28;20536;-39
2022/10/13 10:30:12;;;;;;;3.60;0.20;;;20.40;56.00;;;;;;5047319;28;20132;-40
2022/10/13 10:32:47;;;;;;;2.42;0.20;;;20.40;56.00;;;;;;5049134;28;20057;-40
2022/10/13 10:35:19;;;;;;;3.03;0.30;;;20.40;56.70;;;;;;5050132;28;20118;-39
2022/10/13 10:38:09;;;;;;;3.25;0.40;;;20.40;56.30;;;;;;5049364;28;20060;-41
2022/10/13 10:40:48;;;;;;;8.00;0.30;;;20.40;56.50;;;;;;5049560;28;20504;-40
2022/10/13 10:43:31;;;;;;;2.15;0.20;;;20.30;56.50;;;;;;5048772;28;20040;-40
2022/10/13 10:45:59;;;;;;;3.33;0.60;;;20.40;56.70;;;;;;5047091;28;20991;-39
2022/10/13 10:48:35;;;;;;;2.28;0.22;;;20.30;56.60;;;;;;5049325;28;20068;-39
2022/10/13 10:51:05;;;;;;;6.80;0.20;;;20.30;56.70;;;;;;5050165;28;20045;-40
2022/10/13 10:53:39;;;;;;;5.82;0.55;;;20.30;56.70;;;;;;5049293;28;20045;-39
2022/10/13 10:56:16;;;;;;;2.25;0.68;;;20.30;56.80;;;;;;5049227;28;20045;-40
2022/10/13 10:58:54;;;;;;;0.35;0.28;;;20.30;56.80;;;;;;5047833;28;20049;-40
2022/10/13 11:01:36;;;;;;;3.45;0.43;;;20.30;56.90;;;;;;5044540;28;20127;-40
2022/10/13 11:04:35;;;;;;;4.28;0.38;;;20.30;57.00;;;;;;5049823;28;20049;-40
2022/10/13 11:07:02;;;;;;;3.60;1.38;;;20.30;57.00;;;;;;5045537;28;20116;-40
2022/10/13 11:10:04;;;;;;;2.47;0.30;;;20.20;57.00;;;;;;5042135;28;20538;-40
2022/10/13 11:13:24;;;;;;;1.27;0.28;;;20.30;57.10;;;;;;4979351;28;20077;-40
2022/10/13 11:15:53;;;;;;;2.65;0.50;;;20.20;57.30;;;;;;4977635;28;20141;-40
2022/10/13 11:18:58;;;;;;;1.15;0.43;;;20.20;57.90;;;;;;4981708;28;20062;-39
2022/10/13 11:22:21;;;;;;;3.13;0.20;;;20.20;57.10;;;;;;4981343;28;20042;-40
2022/10/13 11:24:51;;;;;;;2.45;0.30;;;20.20;57.10;;;;;;4983965;28;20046;-40
2022/10/13 11:27:24;;;;;;;4.30;1.33;;;20.20;57.10;;;;;;4978795;28;20150;-40
2022/10/13 11:29:57;;;;;;;4.07;0.40;;;20.20;57.20;;;;;;4979265;28;20061;-40
2022/10/13 11:32:56;;;;;;;9.77;1.00;;;20.20;57.10;;;;;;4970838;28;20213;-40
2022/10/13 11:35:26;;;;;;;3.53;0.43;;;20.20;57.20;;;;;;4970417;28;20097;-39
2022/10/13 11:38:08;;;;;;;3.53;0.28;;;20.20;57.30;;;;;;4984622;28;20049;-40
2022/10/13 11:40:44;;;;;;;2.30;0.57;;;20.30;57.40;;;;;;4980405;28;20194;-40
2022/10/13 11:43:33;;;;;;;4.95;0.40;;;20.20;57.60;;;;;;5004198;28;20857;-40
2022/10/13 11:46:25;;;;;;;0.93;0.35;;;20.30;57.70;;;;;;5045208;28;20053;-39
2022/10/13 11:49:25;;;;;;;5.95;0.95;;;20.20;57.70;;;;;;5046598;28;20150;-40
2022/10/13 11:52:18;;;;;;;5.60;0.38;;;20.20;57.60;;;;;;5041972;28;20048;-40
2022/10/13 11:54:51;;;;;;;3.10;1.30;;;20.20;58.30;;;;;;5047353;28;20047;-40
2022/10/13 11:57:21;;;;;;;5.20;0.35;;;20.10;59.00;;;;;;5048239;28;20496;-48
2022/10/13 11:59:54;;;;;;;0.65;0.25;;;20.10;59.60;;;;;;5047199;28;20124;-41
2022/10/13 12:02:27;;;;;;;6.88;0.43;;;20.10;59.90;;;;;;5061592;28;20509;-43
2022/10/13 12:05:07;;;;;;;2.92;0.77;;;20.00;60.20;;;;;;5044482;28;20580;-45
2022/10/13 12:07:41;;;;;;;2.60;0.38;;;20.00;60.50;;;;;;5045330;28;20037;-41
2022/10/13 12:10:20;;;;;;;3.30;0.82;;;20.00;60.90;;;;;;5049514;28;20041;-39
2022/10/13 12:12:49;;;;;;;1.10;0.20;;;20.00;61.00;;;;;;5045982;28;20036;-40
2022/10/13 12:15:30;;;;;;;7.90;0.22;;;19.90;61.20;;;;;;5047478;28;20127;-41
2022/10/13 12:17:58;;;;;;;3.63;0.30;;;20.00;61.50;;;;;;5047403;28;20136;-40
2022/10/13 12:20:32;;;;;;;3.30;0.28;;;19.90;61.70;;;;;;5047133;28;20039;-40
2022/10/13 12:22:59;;;;;;;0.85;0.40;;;19.90;62.00;;;;;;5047956;28;20041;-47
2022/10/13 12:25:29;;;;;;;2.63;0.40;;;19.90;62.10;;;;;;5048404;28;20033;-46
2022/10/13 12:28:00;;;;;;;4.55;0.82;;;19.80;62.40;;;;;;5047487;28;20072;-47
2022/10/13 12:30:30;;;;;;;4.40;0.52;;;19.80;62.50;;;;;;5048147;28;20051;-44
2022/10/13 12:32:59;;;;;;;2.70;0.60;;;19.80;62.80;;;;;;5045967;28;20059;-44
2022/10/13 12:35:28;;;;;;;2.58;0.85;;;19.80;63.00;;;;;;5048366;28;20838;-44
2022/10/13 12:38:00;;;;;;;3.30;0.55;;;19.80;63.30;;;;;;5048278;28;20037;-51
2022/10/13 12:40:28;;;;;;;2.20;0.60;;;19.80;63.50;;;;;;5047967;28;20107;-43
2022/10/13 12:42:56;;;;;;;7.13;0.38;;;19.70;63.60;;;;;;5047514;28;20035;-44
2022/10/13 12:45:26;;;;;;;0.47;0.38;;;19.70;63.70;;;;;;5047495;28;20039;-43
2022/10/13 12:47:55;;;;;;;3.88;0.77;;;19.70;63.80;;;;;;5047257;28;20136;-44
2022/10/13 12:50:32;;;;;;;1.70;0.50;;;19.70;64.00;;;;;;5047497;28;20037;-42
2022/10/13 12:53:16;;;;;;;0.40;0.20;;;19.70;64.20;;;;;;5041309;28;20036;-47
2022/10/13 12:55:50;;;;;;;2.53;0.20;;;19.70;64.20;;;;;;5047756;28;20045;-46
2022/10/13 12:58:21;;;;;;;0.35;0.10;;;19.70;64.40;;;;;;5046263;28;20033;-44
2022/10/13 13:00:57;;;;;;;3.45;0.75;;;19.60;64.30;;;;;;5047855;28;20044;-45
2022/10/13 13:03:28;;;;;;;1.20;0.15;;;19.60;64.50;;;;;;5046974;28;20063;-46
2022/10/13 13:06:21;;;;;;;0.47;0.25;;;19.60;64.50;;;;;;5046992;28;20041;-49